Time;durP1;ratioP1;P1;durP2;ratioP2;P2;SDS_P1;SDS_P2;PMS_P1;PMS_P2;Temp;Humidity;BMP_temperature;BMP_pressure;BME280_temperature;BME280_humidity;BME280_pressure;Samples;Min_cycle;Max_cycle;Signal;HPM_P1;HPM_P2
2023/07/08 00:00:11;;;;;;;6.00;4.90;;;;;;;;;;5055242;28;20405;-81
2023/07/08 00:02:37;;;;;;;7.03;5.70;;;;;;;;;;5055260;28;20382;-81
2023/07/08 00:05:03;;;;;;;5.87;5.30;;;;;;;;;;5055086;28;20443;-81
2023/07/08 00:07:29;;;;;;;6.05;5.53;;;;;;;;;;5041246;28;20409;-81
2023/07/08 00:09:55;;;;;;;6.05;5.20;;;;;;;;;;5055139;28;20388;-80
2023/07/08 00:12:21;;;;;;;5.47;4.80;;;;;;;;;;5054970;28;20460;-81
2023/07/08 00:14:48;;;;;;;7.60;5.55;;;;;;;;;;5054159;28;20397;-82
2023/07/08 00:17:14;;;;;;;6.07;5.45;;;;;;;;;;5054927;28;20468;-81
2023/07/08 00:19:40;;;;;;;5.95;5.35;;;;;;;;;;5054911;28;20823;-81
2023/07/08 00:22:26;;;;;;;6.65;5.60;;;;;;;;;;5054969;28;20770;-80
2023/07/08 00:24:52;;;;;;;6.57;5.43;;;;;;;;;;5052354;28;20468;-80
2023/07/08 00:27:18;;;;;;;6.25;5.65;;;;;;;;;;5049274;28;20450;-81
2023/07/08 00:29:44;;;;;;;5.88;5.38;;;;;;;;;;5052614;28;20385;-80
2023/07/08 00:32:14;;;;;;;6.18;5.57;;;;;;;;;;5044179;28;20390;-81
2023/07/08 00:34:41;;;;;;;9.75;6.13;;;;;;;;;;5048931;28;20382;-81
2023/07/08 00:37:16;;;;;;;8.45;6.05;;;;;;;;;;5051306;28;20755;-81
2023/07/08 00:39:42;;;;;;;8.13;5.50;;;;;;;;;;5054466;28;20381;-81
2023/07/08 00:42:16;;;;;;;6.30;5.63;;;;;;;;;;5054874;28;20828;-81
2023/07/08 00:44:43;;;;;;;6.85;5.53;;;;;;;;;;5054462;28;20378;-81
2023/07/08 00:47:11;;;;;;;6.63;5.00;;;;;;;;;;5054410;28;20378;-82
2023/07/08 00:49:43;;;;;;;5.10;4.47;;;;;;;;;;5054195;28;20408;-81
2023/07/08 00:52:19;;;;;;;5.50;4.37;;;;;;;;;;5053445;28;20802;-81
2023/07/08 00:54:45;;;;;;;4.72;3.90;;;;;;;;;;5044446;28;20958;-81
2023/07/08 00:57:11;;;;;;;4.65;3.10;;;;;;;;;;5053704;28;20396;-82
2023/07/08 00:59:44;;;;;;;7.27;3.23;;;;;;;;;;5053872;28;20380;-81
2023/07/08 01:02:11;;;;;;;5.35;3.10;;;;;;;;;;5054151;28;20439;-82
2023/07/08 01:04:42;;;;;;;5.63;3.10;;;;;;;;;;5054111;28;20922;-81
2023/07/08 01:07:09;;;;;;;3.80;2.55;;;;;;;;;;5054346;28;20477;-81
2023/07/08 01:09:38;;;;;;;4.53;2.20;;;;;;;;;;5053570;28;20385;-81
2023/07/08 01:12:06;;;;;;;3.42;2.72;;;;;;;;;;5053921;28;20962;-81
2023/07/08 01:14:33;;;;;;;4.30;2.80;;;;;;;;;;5053977;28;20739;-81
2023/07/08 01:16:59;;;;;;;8.43;3.50;;;;;;;;;;5053772;28;20922;-81
2023/07/08 01:19:32;;;;;;;4.00;3.50;;;;;;;;;;5053876;28;20374;-81
2023/07/08 01:21:59;;;;;;;4.70;4.28;;;;;;;;;;5053841;28;20377;-81
2023/07/08 01:24:25;;;;;;;6.18;5.03;;;;;;;;;;5041127;28;20385;-81
2023/07/08 01:26:51;;;;;;;7.20;5.78;;;;;;;;;;5053744;28;20390;-81
2023/07/08 01:29:17;;;;;;;10.88;5.90;;;;;;;;;;5039678;28;20413;-81
2023/07/08 01:31:48;;;;;;;6.47;5.30;;;;;;;;;;5052726;28;20873;-81
2023/07/08 01:34:15;;;;;;;7.23;5.10;;;;;;;;;;5053555;28;20373;-81
2023/07/08 01:36:42;;;;;;;6.07;4.63;;;;;;;;;;5047561;28;20876;-81
2023/07/08 01:39:12;;;;;;;9.90;5.50;;;;;;;;;;5041838;28;20383;-81
2023/07/08 01:41:38;;;;;;;6.90;5.25;;;;;;;;;;5048992;28;20427;-81
2023/07/08 01:44:04;;;;;;;7.18;5.00;;;;;;;;;;5046490;28;20791;-81
2023/07/08 01:46:31;;;;;;;5.93;5.00;;;;;;;;;;5040774;28;20402;-81
2023/07/08 01:48:59;;;;;;;6.65;5.03;;;;;;;;;;5033441;28;20411;-81
2023/07/08 01:51:26;;;;;;;7.22;4.70;;;;;;;;;;5039395;28;20374;-82
2023/07/08 01:53:52;;;;;;;9.23;4.88;;;;;;;;;;5051429;28;20382;-81
2023/07/08 01:56:18;;;;;;;6.40;5.22;;;;;;;;;;5053341;28;20496;-81
2023/07/08 01:58:44;;;;;;;7.35;5.00;;;;;;;;;;5052878;28;20381;-81
2023/07/08 02:01:10;;;;;;;7.15;5.38;;;;;;;;;;5052443;28;20409;-81
2023/07/08 02:03:36;;;;;;;8.20;5.23;;;;;;;;;;5052364;28;20381;-81
2023/07/08 02:06:03;;;;;;;6.85;4.60;;;;;;;;;;5052922;28;20378;-81
2023/07/08 02:08:29;;;;;;;9.00;5.30;;;;;;;;;;5052848;28;20485;-81
2023/07/08 02:10:56;;;;;;;7.17;5.47;;;;;;;;;;5051527;28;20740;-81
2023/07/08 02:13:22;;;;;;;8.02;5.85;;;;;;;;;;5052959;28;20389;-81
2023/07/08 02:15:49;;;;;;;7.20;5.35;;;;;;;;;;5052657;28;20373;-81
2023/07/08 02:18:15;;;;;;;8.65;6.38;;;;;;;;;;5052671;28;20389;-82
2023/07/08 02:20:42;;;;;;;11.85;7.63;;;;;;;;;;5052587;28;20409;-81
2023/07/08 02:23:08;;;;;;;8.77;7.07;;;;;;;;;;5051320;28;20740;-81
2023/07/08 02:25:34;;;;;;;7.30;6.00;;;;;;;;;;5052423;28;20480;-82
2023/07/08 02:28:01;;;;;;;7.93;6.18;;;;;;;;;;5052461;28;20736;-82
2023/07/08 02:30:27;;;;;;;8.82;6.10;;;;;;;;;;5052587;28;20486;-82
2023/07/08 02:32:56;;;;;;;8.07;5.75;;;;;;;;;;5052467;28;20369;-82
2023/07/08 02:35:24;;;;;;;10.20;6.43;;;;;;;;;;5052567;28;20380;-82
2023/07/08 02:37:50;;;;;;;9.87;6.30;;;;;;;;;;5052220;28;20389;-82
2023/07/08 02:40:16;;;;;;;7.53;5.78;;;;;;;;;;5052245;28;20476;-82
2023/07/08 02:42:42;;;;;;;8.27;6.60;;;;;;;;;;5052137;28;20396;-81
2023/07/08 02:45:08;;;;;;;7.95;5.38;;;;;;;;;;5052484;28;20416;-82
2023/07/08 02:47:34;;;;;;;8.25;6.20;;;;;;;;;;5037090;28;20419;-82
2023/07/08 02:50:00;;;;;;;12.98;6.22;;;;;;;;;;5042558;28;20385;-82
2023/07/08 02:52:26;;;;;;;9.30;5.97;;;;;;;;;;5046116;28;20914;-82
2023/07/08 02:54:52;;;;;;;7.65;5.95;;;;;;;;;;5051129;28;20381;-82
2023/07/08 02:57:18;;;;;;;9.10;6.07;;;;;;;;;;5047152;28;20508;-82
2023/07/08 02:59:44;;;;;;;7.32;5.93;;;;;;;;;;5049943;28;20390;-82
2023/07/08 03:02:10;;;;;;;6.93;5.57;;;;;;;;;;5052225;28;20369;-82
2023/07/08 03:04:38;;;;;;;9.43;6.50;;;;;;;;;;5052015;28;20867;-82
2023/07/08 03:07:05;;;;;;;7.37;5.80;;;;;;;;;;5051471;28;20774;-82
2023/07/08 03:09:32;;;;;;;9.50;6.35;;;;;;;;;;5051868;28;20485;-82
2023/07/08 03:11:58;;;;;;;10.00;6.70;;;;;;;;;;5052069;28;20378;-82
2023/07/08 03:14:24;;;;;;;8.40;6.43;;;;;;;;;;5055267;28;20401;-82
2023/07/08 03:16:50;;;;;;;9.85;6.35;;;;;;;;;;5058572;28;20434;-82
2023/07/08 03:19:17;;;;;;;6.43;5.50;;;;;;;;;;5045305;28;20392;-81
2023/07/08 03:21:43;;;;;;;7.28;5.18;;;;;;;;;;5055772;28;20388;-82
2023/07/08 03:24:12;;;;;;;4.80;4.17;;;;;;;;;;5058585;28;20550;-82
2023/07/08 03:26:38;;;;;;;4.60;3.83;;;;;;;;;;5058475;28;20381;-82
2023/07/08 03:29:04;;;;;;;6.60;4.25;;;;;;;;;;5058357;28;20459;-82
2023/07/08 03:31:30;;;;;;;6.30;4.30;;;;;;;;;;5058324;28;20881;-82
2023/07/08 03:33:56;;;;;;;4.65;4.10;;;;;;;;;;5058393;28;20401;-82
2023/07/08 03:36:22;;;;;;;5.07;4.05;;;;;;;;;;5057861;28;20400;-81
2023/07/08 03:38:49;;;;;;;5.15;3.38;;;;;;;;;;5058323;28;20917;-82
2023/07/08 03:41:15;;;;;;;6.33;3.83;;;;;;;;;;5058344;28;20381;-81
2023/07/08 03:43:41;;;;;;;3.22;2.65;;;;;;;;;;5058435;28;20515;-82
2023/07/08 03:46:10;;;;;;;4.03;2.50;;;;;;;;;;5045896;28;20384;-82
2023/07/08 03:48:37;;;;;;;3.28;2.40;;;;;;;;;;5058560;28;20510;-81
2023/07/08 03:51:03;;;;;;;2.93;2.20;;;;;;;;;;5058144;28;20377;-82
2023/07/08 03:53:29;;;;;;;4.50;2.70;;;;;;;;;;5057050;28;20516;-82
2023/07/08 03:55:55;;;;;;;6.07;3.65;;;;;;;;;;5056672;28;20389;-81
2023/07/08 03:58:21;;;;;;;5.20;2.80;;;;;;;;;;5056745;28;20393;-82
2023/07/08 04:00:47;;;;;;;3.85;2.92;;;;;;;;;;5048643;28;20479;-81
2023/07/08 04:03:12;;;;;;;5.13;2.58;;;;;;;;;;5057195;28;20751;-81
2023/07/08 04:05:38;;;;;;;4.43;2.50;;;;;;;;;;5058365;28;20389;-81
2023/07/08 04:08:05;;;;;;;3.05;2.28;;;;;;;;;;5057653;28;20799;-81
2023/07/08 04:10:31;;;;;;;5.80;2.70;;;;;;;;;;5049777;28;20480;-81
2023/07/08 04:12:56;;;;;;;4.18;2.70;;;;;;;;;;5046915;28;20471;-81
2023/07/08 04:15:25;;;;;;;6.20;3.50;;;;;;;;;;5043498;28;20383;-81
2023/07/08 04:17:51;;;;;;;4.53;3.42;;;;;;;;;;5058144;28;20863;-81
2023/07/08 04:20:19;;;;;;;4.72;3.47;;;;;;;;;;5058056;28;20385;-81
2023/07/08 04:22:45;;;;;;;5.07;3.53;;;;;;;;;;5057922;28;20392;-81
2023/07/08 04:25:13;;;;;;;5.47;3.63;;;;;;;;;;5056648;28;20392;-81
2023/07/08 04:27:40;;;;;;;4.65;3.60;;;;;;;;;;5054262;28;20492;-81
2023/07/08 04:30:09;;;;;;;5.70;3.70;;;;;;;;;;5049063;28;20389;-81
2023/07/08 04:32:37;;;;;;;4.53;3.75;;;;;;;;;;5050254;28;20385;-81
2023/07/08 04:35:03;;;;;;;3.22;2.60;;;;;;;;;;5054984;28;20377;-81
2023/07/08 04:37:29;;;;;;;4.07;2.83;;;;;;;;;;5054745;28;20382;-81
2023/07/08 04:39:55;;;;;;;5.45;2.55;;;;;;;;;;5054523;28;20416;-81
2023/07/08 04:42:21;;;;;;;4.18;2.75;;;;;;;;;;5053226;28;20388;-80
2023/07/08 04:44:49;;;;;;;4.90;3.97;;;;;;;;;;5048860;28;20389;-81
2023/07/08 04:47:15;;;;;;;6.05;4.28;;;;;;;;;;5054379;28;20382;-80
2023/07/08 04:49:43;;;;;;;6.47;4.05;;;;;;;;;;5051438;28;20453;-80
2023/07/08 04:52:09;;;;;;;5.40;3.53;;;;;;;;;;5054242;28;20515;-81
2023/07/08 04:54:35;;;;;;;4.85;3.22;;;;;;;;;;5054087;28;20377;-82
2023/07/08 04:57:01;;;;;;;4.57;2.75;;;;;;;;;;5054232;28;20382;-82
2023/07/08 04:59:27;;;;;;;3.22;2.40;;;;;;;;;;5054012;28;20397;-80
2023/07/08 05:01:53;;;;;;;3.13;2.53;;;;;;;;;;5052231;28;20409;-80
2023/07/08 05:04:20;;;;;;;2.85;2.20;;;;;;;;;;5054084;28;20469;-79
2023/07/08 05:06:46;;;;;;;4.40;2.67;;;;;;;;;;5050820;28;20467;-79
2023/07/08 05:09:15;;;;;;;4.07;2.60;;;;;;;;;;5052553;28;20827;-80
2023/07/08 05:11:41;;;;;;;2.90;2.30;;;;;;;;;;5047222;28;20413;-82
2023/07/08 05:14:07;;;;;;;4.70;2.50;;;;;;;;;;5048876;28;20896;-81
2023/07/08 05:16:35;;;;;;;4.47;2.50;;;;;;;;;;5045620;28;20406;-81
2023/07/08 05:19:01;;;;;;;4.60;2.78;;;;;;;;;;5048435;28;20388;-78
2023/07/08 05:21:32;;;;;;;3.58;2.60;;;;;;;;;;5050382;28;20430;-78
2023/07/08 05:23:58;;;;;;;3.67;2.60;;;;;;;;;;5044971;28;20383;-79
2023/07/08 05:26:24;;;;;;;4.43;3.03;;;;;;;;;;5045544;28;20384;-79
2023/07/08 05:28:50;;;;;;;4.15;2.80;;;;;;;;;;5039329;28;20421;-79
2023/07/08 05:31:16;;;;;;;6.45;3.78;;;;;;;;;;5049589;28;22132;-78
2023/07/08 05:33:42;;;;;;;3.78;3.28;;;;;;;;;;5044977;28;20395;-81
2023/07/08 05:36:08;;;;;;;4.90;3.60;;;;;;;;;;5040976;28;20469;-80
2023/07/08 05:38:34;;;;;;;5.25;3.63;;;;;;;;;;5038677;28;20864;-80
2023/07/08 05:41:00;;;;;;;4.75;3.30;;;;;;;;;;5053171;28;20389;-80
2023/07/08 05:43:27;;;;;;;3.93;3.07;;;;;;;;;;5053152;28;20948;-80
2023/07/08 05:45:57;;;;;;;4.95;2.78;;;;;;;;;;5053223;28;20717;-79
2023/07/08 05:48:23;;;;;;;3.65;2.80;;;;;;;;;;5042400;28;20920;-80
2023/07/08 05:50:49;;;;;;;4.82;2.65;;;;;;;;;;5041592;28;20390;-79
2023/07/08 05:53:15;;;;;;;2.70;1.70;;;;;;;;;;5046712;28;20394;-81
2023/07/08 05:55:42;;;;;;;2.50;1.50;;;;;;;;;;5034038;28;20458;-81
2023/07/08 05:58:08;;;;;;;1.90;1.35;;;;;;;;;;5049092;28;20392;-81
2023/07/08 06:00:34;;;;;;;2.10;1.30;;;;;;;;;;5046895;28;20890;-81
2023/07/08 06:03:00;;;;;;;1.50;1.20;;;;;;;;;;5046344;28;20389;-81
2023/07/08 06:05:26;;;;;;;2.50;1.30;;;;;;;;;;5053004;28;20389;-80
2023/07/08 06:07:52;;;;;;;1.73;1.15;;;;;;;;;;5051776;28;20417;-79
2023/07/08 06:10:18;;;;;;;2.30;1.40;;;;;;;;;;5047232;28;20369;-79
2023/07/08 06:12:44;;;;;;;1.63;1.25;;;;;;;;;;5052519;28;20389;-80
2023/07/08 06:15:12;;;;;;;1.67;1.30;;;;;;;;;;5048417;28;20906;-80
2023/07/08 06:17:38;;;;;;;1.73;1.23;;;;;;;;;;5044578;28;20383;-80
2023/07/08 06:20:04;;;;;;;1.60;1.20;;;;;;;;;;5038019;28;20398;-79
2023/07/08 06:22:30;;;;;;;2.03;1.30;;;;;;;;;;5042897;28;20386;-79
2023/07/08 06:24:56;;;;;;;2.78;1.52;;;;;;;;;;5045960;28;20399;-79
2023/07/08 06:27:22;;;;;;;2.38;1.85;;;;;;;;;;5051651;28;20439;-79
2023/07/08 06:29:48;;;;;;;4.20;1.57;;;;;;;;;;5052111;28;21090;-78
2023/07/08 06:32:14;;;;;;;1.33;1.00;;;;;;;;;;5047269;28;20382;-79
2023/07/08 06:34:40;;;;;;;1.95;1.30;;;;;;;;;;5052780;28;20871;-79
2023/07/08 06:37:06;;;;;;;1.58;1.30;;;;;;;;;;5052893;28;20439;-80
2023/07/08 06:39:32;;;;;;;1.98;1.65;;;;;;;;;;5052381;28;20377;-79
2023/07/08 06:41:58;;;;;;;3.38;1.92;;;;;;;;;;5050289;28;20389;-81
2023/07/08 06:44:25;;;;;;;2.58;1.80;;;;;;;;;;5041695;28;20788;-82
2023/07/08 06:46:51;;;;;;;4.30;1.80;;;;;;;;;;5043222;28;20389;-81
2023/07/08 06:49:17;;;;;;;3.28;1.30;;;;;;;;;;5038313;28;20411;-83
2023/07/08 06:51:45;;;;;;;1.90;1.65;;;;;;;;;;5044083;28;20377;-82
2023/07/08 06:54:11;;;;;;;4.35;2.50;;;;;;;;;;5039159;28;20371;-82
2023/07/08 06:56:41;;;;;;;5.25;2.80;;;;;;;;;;5042008;28;20452;-82
2023/07/08 06:59:10;;;;;;;3.47;2.50;;;;;;;;;;5040213;28;20745;-81
2023/07/08 07:01:39;;;;;;;4.55;2.85;;;;;;;;;;5043216;28;20882;-81
2023/07/08 07:04:05;;;;;;;9.55;5.88;;;;;;;;;;5047906;28;20876;-79
2023/07/08 07:06:31;;;;;;;14.65;7.50;;;;;;;;;;5046786;28;20393;-79
2023/07/08 07:08:57;;;;;;;8.15;3.17;;;;;;;;;;5051882;28;20406;-79
2023/07/08 07:11:23;;;;;;;2.92;1.92;;;;;;;;;;5051431;28;20845;-79
2023/07/08 07:13:49;;;;;;;1.70;1.60;;;;;;;;;;5051552;28;20416;-79
2023/07/08 07:16:15;;;;;;;3.17;1.67;;;;;;;;;;5050576;28;20413;-81
2023/07/08 07:18:41;;;;;;;2.20;1.50;;;;;;;;;;5042867;28;20468;-88
2023/07/08 07:21:07;;;;;;;2.60;1.58;;;;;;;;;;5051604;28;20469;-88
2023/07/08 07:23:33;;;;;;;2.78;1.63;;;;;;;;;;5052060;28;20716;-89
2023/07/08 07:25:59;;;;;;;2.92;1.70;;;;;;;;;;5042932;28;20392;-88
2023/07/08 07:28:25;;;;;;;2.97;1.50;;;;;;;;;;5047152;28;20941;-88
2023/07/08 07:30:58;;;;;;;2.50;1.70;;;;;;;;;;5044744;28;20395;-88
2023/07/08 07:33:24;;;;;;;2.40;1.52;;;;;;;;;;5051860;28;20401;-88
2023/07/08 07:35:50;;;;;;;2.13;1.50;;;;;;;;;;5051485;28;20727;-88
2023/07/08 07:38:17;;;;;;;2.42;1.48;;;;;;;;;;5052397;28;20401;-89
2023/07/08 07:40:43;;;;;;;2.13;1.60;;;;;;;;;;5043418;28;20383;-89
2023/07/08 07:43:09;;;;;;;2.08;1.42;;;;;;;;;;5051468;28;20385;-89
2023/07/08 07:45:35;;;;;;;2.03;1.50;;;;;;;;;;5051235;28;20400;-88
2023/07/08 07:48:01;;;;;;;2.13;1.38;;;;;;;;;;5052399;28;20479;-89
2023/07/08 07:50:27;;;;;;;2.28;1.58;;;;;;;;;;5041473;28;20395;-88
2023/07/08 07:52:54;;;;;;;2.97;1.60;;;;;;;;;;5039949;28;20449;-89
2023/07/08 07:55:20;;;;;;;1.83;1.50;;;;;;;;;;5043684;28;20381;-88
2023/07/08 07:57:46;;;;;;;3.13;1.65;;;;;;;;;;5039009;28;20394;-88
2023/07/08 08:00:14;;;;;;;3.60;1.65;;;;;;;;;;5041481;28;20505;-87
2023/07/08 08:02:40;;;;;;;2.65;1.83;;;;;;;;;;5050815;28;20462;-88
2023/07/08 08:05:06;;;;;;;4.23;1.90;;;;;;;;;;5053933;28;20560;-88
2023/07/08 08:07:32;;;;;;;2.03;1.63;;;;;;;;;;5055533;28;20469;-90
2023/07/08 08:09:58;;;;;;;2.20;1.40;;;;;;;;;;5055359;28;20798;-88
2023/07/08 08:12:24;;;;;;;3.47;1.80;;;;;;;;;;5055436;28;20468;-88
2023/07/08 08:14:50;;;;;;;2.45;1.60;;;;;;;;;;5054343;28;20894;-88
2023/07/08 08:17:16;;;;;;;2.78;1.90;;;;;;;;;;5055406;28;20439;-88
2023/07/08 08:19:42;;;;;;;3.22;2.10;;;;;;;;;;5055426;28;20397;-88
2023/07/08 08:22:08;;;;;;;2.25;1.77;;;;;;;;;;5055301;28;20419;-89
2023/07/08 08:24:34;;;;;;;2.55;1.70;;;;;;;;;;5055272;28;20416;-88
2023/07/08 08:27:00;;;;;;;2.67;1.60;;;;;;;;;;5055675;28;20421;-90
2023/07/08 08:29:26;;;;;;;2.10;1.50;;;;;;;;;;5055045;28;20409;-88
2023/07/08 08:31:54;;;;;;;1.58;1.42;;;;;;;;;;5050087;28;20377;-88
2023/07/08 08:34:20;;;;;;;2.08;1.42;;;;;;;;;;5049090;28;20373;-87
2023/07/08 08:36:46;;;;;;;3.08;1.40;;;;;;;;;;5045293;28;20394;-89
2023/07/08 08:39:17;;;;;;;1.95;1.38;;;;;;;;;;5055419;28;20468;-88
2023/07/08 08:41:44;;;;;;;2.80;1.30;;;;;;;;;;5055053;28;20411;-88
2023/07/08 08:44:17;;;;;;;2.05;1.50;;;;;;;;;;5055041;28;20387;-89
2023/07/08 08:46:46;;;;;;;1.77;1.20;;;;;;;;;;5055004;28;20373;-88
2023/07/08 08:49:25;;;;;;;2.42;1.50;;;;;;;;;;5054955;28;20405;-90
2023/07/08 08:51:51;;;;;;;1.60;1.30;;;;;;;;;;5040585;28;20377;-90
2023/07/08 08:54:17;;;;;;;3.05;1.70;;;;;;;;;;5048659;28;20374;-89
2023/07/08 08:56:52;;;;;;;2.88;1.88;;;;;;;;;;5054824;28;20476;-89
2023/07/08 08:59:33;;;;;;;2.47;1.60;;;;;;;;;;5054623;28;20377;-88
2023/07/08 09:01:59;;;;;;;2.25;1.80;;;;;;;;;;5055001;28;20401;-89
2023/07/08 09:04:36;;;;;;;3.40;1.67;;;;;;;;;;5054716;28;20385;-88
2023/07/08 09:07:07;;;;;;;2.22;1.65;;;;;;;;;;5054574;28;20465;-88
2023/07/08 09:09:39;;;;;;;3.60;1.60;;;;;;;;;;5052630;28;20402;-89
2023/07/08 09:12:06;;;;;;;1.95;1.40;;;;;;;;;;5053718;28;20877;-87
2023/07/08 09:14:34;;;;;;;2.03;1.60;;;;;;;;;;5053585;28;20385;-88
2023/07/08 09:17:06;;;;;;;4.68;1.58;;;;;;;;;;5051575;28;20390;-90
2023/07/08 09:19:42;;;;;;;4.10;1.60;;;;;;;;;;5053230;28;20397;-88
2023/07/08 09:22:17;;;;;;;3.03;1.63;;;;;;;;;;5054103;28;20374;-86
2023/07/08 09:24:45;;;;;;;1.80;1.70;;;;;;;;;;5046402;28;20447;-83
2023/07/08 09:27:12;;;;;;;1.63;1.40;;;;;;;;;;5049626;28;20385;-83
2023/07/08 09:29:38;;;;;;;2.78;1.48;;;;;;;;;;5043787;28;20412;-82
2023/07/08 09:32:17;;;;;;;2.80;1.77;;;;;;;;;;5044324;28;20383;-82
2023/07/08 09:34:51;;;;;;;3.10;1.70;;;;;;;;;;5053531;28;20443;-81
2023/07/08 09:37:20;;;;;;;2.60;1.85;;;;;;;;;;5048282;28;20381;-82
2023/07/08 09:39:46;;;;;;;2.63;1.70;;;;;;;;;;5051255;28;20404;-83
2023/07/08 09:42:14;;;;;;;3.90;1.67;;;;;;;;;;5044975;28;20381;-82
2023/07/08 09:44:40;;;;;;;2.17;1.85;;;;;;;;;;5053023;28;20389;-83
2023/07/08 09:47:20;;;;;;;2.67;1.70;;;;;;;;;;5053736;28;20878;-82
2023/07/08 09:49:47;;;;;;;2.28;1.60;;;;;;;;;;5053457;28;20412;-85
2023/07/08 09:52:13;;;;;;;4.85;1.88;;;;;;;;;;5050533;28;20381;-83
2023/07/08 09:54:41;;;;;;;2.15;1.60;;;;;;;;;;5053350;28;20531;-85
2023/07/08 09:57:12;;;;;;;1.92;1.70;;;;;;;;;;5052971;28;20386;-84
2023/07/08 09:59:42;;;;;;;2.20;1.73;;;;;;;;;;5052862;28;20381;-84
2023/07/08 10:02:27;;;;;;;2.50;1.73;;;;;;;;;;5053286;28;20401;-83
2023/07/08 10:04:57;;;;;;;2.50;1.80;;;;;;;;;;5053062;28;20385;-83
2023/07/08 10:07:23;;;;;;;2.60;1.70;;;;;;;;;;5052949;28;20382;-83
2023/07/08 10:09:56;;;;;;;2.22;1.83;;;;;;;;;;5052954;28;20412;-83
2023/07/08 10:12:23;;;;;;;2.47;1.80;;;;;;;;;;5053516;28;20388;-90
2023/07/08 10:14:58;;;;;;;2.60;1.80;;;;;;;;;;5051630;28;20411;-91
2023/07/08 10:17:25;;;;;;;3.40;1.77;;;;;;;;;;5046548;28;20400;-89
2023/07/08 10:19:51;;;;;;;4.15;1.70;;;;;;;;;;5076180;22;20517;-91
2023/07/08 10:22:20;;;;;;;2.08;1.65;;;;;;;;;;5053496;28;20855;-91
2023/07/08 10:25:04;;;;;;;2.43;1.83;;;;;;;;;;5046504;28;20396;-91
2023/07/08 10:27:49;;;;;;;3.28;1.70;;;;;;;;;;5053725;28;20382;-90
2023/07/08 10:30:15;;;;;;;2.35;1.88;;;;;;;;;;5046986;28;20371;-93
2023/07/08 10:32:53;;;;;;;2.30;1.80;;;;;;;;;;5033551;28;20375;-92
2023/07/08 10:35:21;;;;;;;2.72;1.90;;;;;;;;;;5030625;28;20861;-91
2023/07/08 10:38:06;;;;;;;1.90;1.70;;;;;;;;;;5028814;28;20385;-92
2023/07/08 10:40:35;;;;;;;3.22;1.90;;;;;;;;;;5031379;28;20375;-91
2023/07/08 10:43:16;;;;;;;2.40;1.70;;;;;;;;;;5029690;28;20940;-91
2023/07/08 10:46:20;;;;;;;2.65;1.85;;;;;;;;;;5029826;28;20864;-92
2023/07/08 10:48:58;;;;;;;3.88;2.22;;;;;;;;;;5003850;28;20478;-92
2023/07/08 10:51:45;;;;;;;2.90;1.88;;;;;;;;;;4987957;28;20842;-91
2023/07/08 10:54:16;;;;;;;3.10;1.98;;;;;;;;;;5017696;28;20425;-89
2023/07/08 10:56:53;;;;;;;3.65;1.85;;;;;;;;;;5032886;28;20368;-91
2023/07/08 10:59:47;;;;;;;3.10;2.10;;;;;;;;;;5026107;28;20387;-91
2023/07/08 11:02:26;;;;;;;2.40;1.90;;;;;;;;;;5024167;28;20396;-91
2023/07/08 11:04:59;;;;;;;2.35;1.90;;;;;;;;;;5030175;28;20394;-90
2023/07/08 11:07:41;;;;;;;3.67;1.98;;;;;;;;;;5022051;28;20371;-90
2023/07/08 11:10:11;;;;;;;12.23;2.60;;;;;;;;;;5028037;28;20435;-91
2023/07/08 11:12:41;;;;;;;4.22;1.90;;;;;;;;;;5022450;28;20762;-91
2023/07/08 11:15:15;;;;;;;2.40;1.80;;;;;;;;;;5034814;28;20388;-91
2023/07/08 11:17:54;;;;;;;2.38;1.70;;;;;;;;;;5034870;28;20440;-92
2023/07/08 11:20:25;;;;;;;3.05;2.00;;;;;;;;;;5034214;28;20444;-92
2023/07/08 11:22:54;;;;;;;2.47;2.00;;;;;;;;;;5022498;28;20387;-92
2023/07/08 11:25:21;;;;;;;1.87;1.60;;;;;;;;;;5033379;28;20375;-93
2023/07/08 11:27:49;;;;;;;3.30;2.00;;;;;;;;;;5027043;28;20410;-92
2023/07/08 11:30:17;;;;;;;3.45;1.85;;;;;;;;;;5034406;28;20387;-93
2023/07/08 11:32:45;;;;;;;2.13;1.90;;;;;;;;;;5033904;28;20464;-92
2023/07/08 11:35:20;;;;;;;2.90;1.85;;;;;;;;;;5036513;28;20382;-92
2023/07/08 11:37:46;;;;;;;9.17;2.23;;;;;;;;;;5037307;28;20383;-93
2023/07/08 11:40:22;;;;;;;11.70;2.60;;;;;;;;;;5035407;28;20409;-91
2023/07/08 11:42:50;;;;;;;4.57;2.20;;;;;;;;;;5035449;28;20406;-90
2023/07/08 11:45:19;;;;;;;22.27;3.63;;;;;;;;;;5036526;28;20389;-89
2023/07/08 11:47:46;;;;;;;8.52;2.25;;;;;;;;;;5037011;28;20462;-89
2023/07/08 11:50:20;;;;;;;15.80;3.05;;;;;;;;;;5037320;28;20904;-92
2023/07/08 11:53:00;;;;;;;3.47;2.30;;;;;;;;;;5038050;28;20471;-91
2023/07/08 11:55:31;;;;;;;2.88;2.10;;;;;;;;;;5037756;28;20403;-90
2023/07/08 11:58:00;;;;;;;2.40;2.20;;;;;;;;;;5025023;28;20882;-89
2023/07/08 12:00:32;;;;;;;5.73;5.17;;;;;;;;;;5031379;28;20393;-91
2023/07/08 12:02:59;;;;;;;6.17;5.60;;;;;;;;;;5030802;28;20474;-91
2023/07/08 12:05:36;;;;;;;3.10;2.87;;;;;;;;;;5029992;28;20436;-89
2023/07/08 12:08:03;;;;;;;2.63;1.92;;;;;;;;;;5028342;28;20422;-89
2023/07/08 12:10:59;;;;;;;4.30;3.80;;;;;;;;;;5026922;28;20442;-90
2023/07/08 12:13:25;;;;;;;3.50;2.20;;;;;;;;;;4981375;28;20877;-85
2023/07/08 12:15:51;;;;;;;2.78;2.10;;;;;;;;;;5036323;28;20387;-91
2023/07/08 12:18:25;;;;;;;2.22;2.03;;;;;;;;;;5037690;28;20394;-91
2023/07/08 12:20:56;;;;;;;2.95;2.50;;;;;;;;;;5036603;28;20407;-92
2023/07/08 12:23:37;;;;;;;3.57;2.57;;;;;;;;;;5053688;28;20437;-90
2023/07/08 12:26:08;;;;;;;2.58;2.30;;;;;;;;;;5035006;28;20450;-90
2023/07/08 12:28:37;;;;;;;2.97;2.63;;;;;;;;;;5051986;28;20434;-90
2023/07/08 12:31:23;;;;;;;2.65;2.00;;;;;;;;;;5036719;28;20398;-93
2023/07/08 12:36:47;;;;;;;2.10;1.90;;;;;;;;;;5009054;28;20397;-91
2023/07/08 12:39:16;;;;;;;3.10;1.80;;;;;;;;;;5005221;28;20400;-90
2023/07/08 12:41:47;;;;;;;3.60;2.13;;;;;;;;;;4993241;28;20377;-89
2023/07/08 12:44:18;;;;;;;3.65;2.40;;;;;;;;;;5005269;28;20384;-92
2023/07/08 12:46:45;;;;;;;3.33;2.53;;;;;;;;;;4999108;28;20445;-88
2023/07/08 12:49:11;;;;;;;3.10;1.90;;;;;;;;;;5003559;28;20416;-89
2023/07/08 12:51:39;;;;;;;4.40;2.50;;;;;;;;;;4993605;28;20485;-91
2023/07/08 12:54:05;;;;;;;3.85;2.10;;;;;;;;;;4994569;28;20385;-88
2023/07/08 12:56:31;;;;;;;2.65;2.10;;;;;;;;;;5005758;28;20377;-91
2023/07/08 12:58:59;;;;;;;4.28;2.25;;;;;;;;;;5006271;28;20402;-89
2023/07/08 13:01:35;;;;;;;2.75;2.10;;;;;;;;;;5003753;28;20393;-89
2023/07/08 13:04:02;;;;;;;3.17;2.10;;;;;;;;;;4998855;28;20517;-89
2023/07/08 13:06:30;;;;;;;2.15;1.75;;;;;;;;;;5005750;28;20436;-88
2023/07/08 13:09:19;;;;;;;2.97;1.88;;;;;;;;;;4991480;28;20429;-91
2023/07/08 13:11:45;;;;;;;3.20;2.00;;;;;;;;;;4941743;28;20394;-88
2023/07/08 13:17:28;;;;;;;3.10;2.20;;;;;;;;;;5008129;28;20459;-92
2023/07/08 13:20:00;;;;;;;2.20;2.00;;;;;;;;;;4993801;28;20475;-92
2023/07/08 13:29:08;;;;;;;4.80;2.50;;;;;;;;;;4966878;28;20421;-93
2023/07/08 13:41:25;;;;;;;3.45;1.90;;;;;;;;;;4899538;29;20379;-94
2023/07/08 13:57:16;;;;;;;;;;;;;;;;;;;;;
2023/07/08 14:00:11;;;;;;;3.03;2.47;;;;;;;;;;4864725;29;20432;-92
2023/07/08 14:02:44;;;;;;;2.53;2.33;;;;;;;;;;4871408;29;20623;-92
2023/07/08 14:08:59;;;;;;;;;;;;;;;;;;;;;
2023/07/08 14:15:24;;;;;;;3.10;2.30;;;;;;;;;;4939881;29;20384;-92
2023/07/08 14:17:49;;;;;;;2.00;1.60;;;;;;;;;;4922734;29;20418;-91
2023/07/08 14:20:17;;;;;;;3.08;1.95;;;;;;;;;;4934441;29;20396;-92
2023/07/08 14:26:17;;;;;;;2.60;1.73;;;;;;;;;;4937976;29;20534;-92
2023/07/08 14:28:43;;;;;;;2.55;2.05;;;;;;;;;;4934197;29;20526;-90
2023/07/08 14:31:10;;;;;;;2.47;1.63;;;;;;;;;;4933314;29;20387;-91
2023/07/08 14:33:36;;;;;;;3.65;1.60;;;;;;;;;;4934016;29;20388;-91
2023/07/08 14:36:03;;;;;;;2.33;1.77;;;;;;;;;;4933764;29;20392;-91
2023/07/08 14:38:32;;;;;;;8.20;2.80;;;;;;;;;;4918077;29;20400;-91
2023/07/08 14:41:18;;;;;;;2.53;1.90;;;;;;;;;;4934565;29;20407;-92
2023/07/08 14:43:50;;;;;;;2.40;1.83;;;;;;;;;;4937224;29;20418;-93
2023/07/08 14:52:01;;;;;;;2.90;2.00;;;;;;;;;;5888261;22;20450;-90
2023/07/08 14:54:27;;;;;;;9.52;2.85;;;;;;;;;;5047629;28;20873;-92
2023/07/08 15:00:06;;;;;;;7.30;2.87;;;;;;;;;;4986867;28;20385;-93
2023/07/08 15:02:38;;;;;;;3.42;1.70;;;;;;;;;;5000732;28;20391;-91
2023/07/08 15:05:05;;;;;;;2.03;1.80;;;;;;;;;;5019416;28;20388;-90
2023/07/08 15:07:51;;;;;;;2.33;1.85;;;;;;;;;;5036215;28;20379;-93
2023/07/08 15:10:21;;;;;;;3.03;1.98;;;;;;;;;;5030520;28;20794;-91
2023/07/08 15:13:11;;;;;;;2.43;1.80;;;;;;;;;;5035818;28;20383;-93
2023/07/08 15:15:43;;;;;;;2.53;2.03;;;;;;;;;;5036114;28;20375;-90
2023/07/08 15:18:13;;;;;;;15.35;2.75;;;;;;;;;;5035779;28;20387;-92
2023/07/08 15:20:40;;;;;;;3.80;1.90;;;;;;;;;;5049516;28;20377;-92
2023/07/08 15:23:07;;;;;;;3.47;1.65;;;;;;;;;;5044232;28;20380;-92
2023/07/08 15:25:34;;;;;;;4.00;1.90;;;;;;;;;;5047205;28;20374;-92
2023/07/08 15:28:23;;;;;;;3.15;1.95;;;;;;;;;;5033047;28;20577;-92
2023/07/08 15:30:51;;;;;;;3.85;2.00;;;;;;;;;;5031875;28;20799;-93
2023/07/08 15:33:20;;;;;;;2.80;2.05;;;;;;;;;;5033678;28;20414;-92
2023/07/08 15:35:46;;;;;;;3.95;2.20;;;;;;;;;;5043342;28;20884;-91
2023/07/08 15:38:24;;;;;;;2.75;2.30;;;;;;;;;;5034746;28;20387;-92
2023/07/08 15:41:00;;;;;;;9.98;2.42;;;;;;;;;;5047743;28;20389;-93
2023/07/08 15:43:30;;;;;;;3.33;1.85;;;;;;;;;;5041516;28;20439;-93
2023/07/08 15:46:22;;;;;;;4.68;2.10;;;;;;;;;;5044881;28;20391;-93
2023/07/08 15:48:48;;;;;;;20.38;2.95;;;;;;;;;;4989638;28;20755;-91
2023/07/08 15:51:15;;;;;;;3.35;2.20;;;;;;;;;;5035338;28;20374;-91